Time;durP1;ratioP1;P1;durP2;ratioP2;P2;SDS_P1;SDS_P2;PMS_P1;PMS_P2;Temp;Humidity;BMP_temperature;BMP_pressure;BME280_temperature;BME280_humidity;BME280_pressure;Samples;Min_cycle;Max_cycle;Signal;HPM_P1;HPM_P2
2022/01/26 00:07:16;;;;;;;70.65;38.60;;;6.80;96.80;;;;;;5108898;27;20412;-71
2022/01/26 00:09:42;;;;;;;73.32;37.55;;;6.80;96.80;;;;;;5144609;27;20399;-70
2022/01/26 00:12:09;;;;;;;67.75;37.30;;;6.80;97.00;;;;;;5109799;27;20488;-72
2022/01/26 00:14:38;;;;;;;70.10;36.60;;;6.70;97.00;;;;;;5112244;27;20705;-72
2022/01/26 00:17:04;;;;;;;68.67;35.53;;;6.70;97.10;;;;;;5109761;28;20419;-73
2022/01/26 00:19:45;;;;;;;65.68;35.05;;;6.70;97.20;;;;;;5112401;28;20416;-74
2022/01/26 00:22:12;;;;;;;68.10;36.50;;;6.70;97.20;;;;;;5122954;27;20410;-73
2022/01/26 00:27:21;;;;;;;67.47;36.80;;;6.60;97.40;;;;;;5107050;27;20461;-74
2022/01/26 00:29:58;;;;;;;69.77;36.57;;;6.60;97.40;;;;;;5144983;27;20410;-71
2022/01/26 00:38:40;;;;;;;66.55;35.97;;;6.60;97.20;;;;;;5104519;27;20420;-71
2022/01/26 00:40:43;;;;;;;63.13;34.63;;;6.70;97.20;;;;;;5102448;27;20517;-71
2022/01/26 00:43:18;;;;;;;60.75;34.05;;;6.60;96.70;;;;;;5109215;28;20487;-71
2022/01/26 00:45:44;;;;;;;66.35;36.00;;;6.60;96.70;;;;;;5119014;27;20391;-71
2022/01/26 00:48:11;;;;;;;67.88;35.65;;;6.50;97.10;;;;;;5112529;27;20402;-72
2022/01/26 00:50:38;;;;;;;63.70;34.17;;;6.60;97.20;;;;;;5109284;27;20461;-73
2022/01/26 00:53:06;;;;;;;62.95;34.65;;;6.50;97.00;;;;;;5112121;27;20458;-72
2022/01/26 00:55:31;;;;;;;63.05;34.78;;;6.60;96.90;;;;;;5112823;27;20384;-72
2022/01/26 00:57:57;;;;;;;68.87;36.03;;;6.50;96.80;;;;;;5116556;27;20417;-72
2022/01/26 01:00:26;;;;;;;66.20;34.40;;;6.50;96.80;;;;;;5112891;27;20404;-72
2022/01/26 01:02:54;;;;;;;67.32;35.13;;;6.50;97.00;;;;;;5108272;28;20408;-72
2022/01/26 01:05:24;;;;;;;66.05;35.40;;;6.50;97.10;;;;;;5113107;27;20411;-73
2022/01/26 01:07:57;;;;;;;67.18;36.22;;;6.50;97.10;;;;;;5107966;28;20404;-72
2022/01/26 01:10:24;;;;;;;67.57;36.50;;;6.50;97.20;;;;;;5112093;27;20399;-74
2022/01/26 01:12:55;;;;;;;62.92;36.03;;;6.50;97.10;;;;;;5109632;28;20543;-73
2022/01/26 01:15:21;;;;;;;70.05;38.65;;;6.40;97.00;;;;;;5113346;27;20406;-73
2022/01/26 01:17:52;;;;;;;72.80;38.60;;;6.40;97.20;;;;;;5107678;28;20415;-72
2022/01/26 01:30:47;;;;;;;71.25;40.35;;;6.50;97.20;;;;;;5110203;28;20428;-72
2022/01/26 01:33:20;;;;;;;74.43;42.30;;;6.50;97.30;;;;;;5110259;27;20450;-74
2022/01/26 01:35:47;;;;;;;73.22;41.38;;;6.50;97.30;;;;;;5117371;27;20499;-73
2022/01/26 01:38:16;;;;;;;77.40;42.65;;;6.50;97.30;;;;;;5110583;27;20403;-72
2022/01/26 01:40:45;;;;;;;76.78;42.53;;;6.50;97.40;;;;;;5108262;28;21012;-73
2022/01/26 01:43:12;;;;;;;81.28;44.22;;;6.60;97.40;;;;;;5114976;27;20446;-71
2022/01/26 01:45:45;;;;;;;77.57;43.80;;;6.60;97.30;;;;;;5110104;27;20400;-73
2022/01/26 01:48:16;;;;;;;80.57;45.42;;;6.60;97.40;;;;;;5106196;28;20461;-72
2022/01/26 01:50:42;;;;;;;80.68;44.95;;;6.60;97.60;;;;;;5098024;27;20990;-73
2022/01/26 01:53:12;;;;;;;80.70;45.83;;;6.70;97.30;;;;;;5110985;27;20416;-72
2022/01/26 01:55:40;;;;;;;81.80;47.15;;;6.60;97.20;;;;;;5108222;28;20438;-72
2022/01/26 01:58:07;;;;;;;87.32;48.95;;;6.60;97.20;;;;;;5108030;28;20894;-72
2022/01/26 02:00:33;;;;;;;89.20;49.08;;;6.60;97.20;;;;;;5113089;27;20486;-72
2022/01/26 02:03:00;;;;;;;95.77;51.03;;;6.60;97.30;;;;;;5113957;27;20797;-70
2022/01/26 02:05:26;;;;;;;93.38;52.20;;;6.60;97.20;;;;;;5111233;27;20411;-70
2022/01/26 02:07:51;;;;;;;95.03;52.72;;;6.60;97.30;;;;;;5110420;27;20400;-71
2022/01/26 02:10:18;;;;;;;93.73;52.13;;;6.60;97.30;;;;;;5109849;28;20388;-72
2022/01/26 02:12:48;;;;;;;98.13;52.90;;;6.60;97.30;;;;;;5106898;28;20427;-71
2022/01/26 02:15:22;;;;;;;106.60;55.90;;;6.60;97.30;;;;;;5107534;28;20416;-72
2022/01/26 02:56:05;;;;;;;129.20;63.40;;;6.40;97.60;;;;;;5101774;28;20415;-74
2022/01/26 03:03:42;;;;;;;129.97;65.13;;;6.40;98.00;;;;;;5112240;28;20400;-73
2022/01/26 03:06:13;;;;;;;126.35;63.33;;;6.40;98.00;;;;;;5107953;28;20419;-72
2022/01/26 03:08:44;;;;;;;127.67;66.17;;;6.40;97.90;;;;;;5106166;28;21947;-73
2022/01/26 03:11:13;;;;;;;133.55;65.13;;;6.40;98.00;;;;;;5105725;28;20404;-72
2022/01/26 03:13:45;;;;;;;131.40;65.90;;;6.30;98.20;;;;;;5115156;28;20398;-72
2022/01/26 03:16:26;;;;;;;128.43;64.43;;;6.30;98.40;;;;;;5119169;27;20919;-72
2022/01/26 03:19:33;;;;;;;126.15;66.15;;;6.40;98.40;;;;;;5106788;28;20415;-73
2022/01/26 03:21:58;;;;;;;126.82;64.65;;;6.30;98.40;;;;;;5101506;28;20798;-72
2022/01/26 03:28:15;;;;;;;130.20;66.15;;;6.30;98.60;;;;;;5106762;28;20826;-73
2022/01/26 03:35:18;;;;;;;126.65;66.95;;;6.20;98.80;;;;;;5121085;28;20404;-73
2022/01/26 03:37:52;;;;;;;129.18;65.30;;;6.20;98.80;;;;;;5109119;28;20415;-73
2022/01/26 03:40:18;;;;;;;126.57;65.55;;;6.20;98.90;;;;;;5110674;28;20803;-76
2022/01/26 03:42:44;;;;;;;129.73;65.55;;;6.20;98.90;;;;;;5116938;28;20402;-77
2022/01/26 03:45:10;;;;;;;128.47;65.63;;;6.20;99.00;;;;;;5113012;28;20412;-72
2022/01/26 03:47:35;;;;;;;130.30;66.15;;;6.20;99.10;;;;;;5122705;27;20770;-73
2022/01/26 03:50:01;;;;;;;125.50;65.27;;;6.20;99.10;;;;;;5123430;28;20945;-72
2022/01/26 03:52:27;;;;;;;128.68;65.88;;;6.20;99.00;;;;;;5110627;28;20440;-72
2022/01/26 03:54:52;;;;;;;129.10;64.70;;;6.20;99.10;;;;;;5117391;27;20420;-72
2022/01/26 03:57:18;;;;;;;132.68;67.35;;;6.20;99.20;;;;;;5132928;27;20406;-74
2022/01/26 03:59:43;;;;;;;128.10;64.60;;;6.20;99.30;;;;;;5118881;27;20426;-72
2022/01/26 04:02:09;;;;;;;127.83;64.17;;;6.30;99.40;;;;;;5112109;27;20412;-70
2022/01/26 04:04:43;;;;;;;132.00;65.80;;;6.30;99.30;;;;;;5114489;27;20804;-72
2022/01/26 04:07:09;;;;;;;129.25;64.60;;;6.30;99.30;;;;;;5111422;27;20408;-74
2022/01/26 04:09:34;;;;;;;130.87;65.20;;;6.30;99.40;;;;;;5113060;27;20947;-71
2022/01/26 04:12:00;;;;;;;132.52;66.25;;;6.40;99.50;;;;;;5110380;28;20411;-71
2022/01/26 04:14:30;;;;;;;135.60;66.33;;;6.40;99.40;;;;;;5126296;27;20404;-73
2022/01/26 04:16:56;;;;;;;130.45;65.25;;;6.40;99.30;;;;;;5112656;27;20448;-72
2022/01/26 04:19:22;;;;;;;134.17;65.67;;;6.40;99.50;;;;;;5109354;28;20428;-73
2022/01/26 04:24:42;;;;;;;133.27;65.97;;;6.50;99.70;;;;;;5115947;27;20394;-74
2022/01/26 04:27:12;;;;;;;135.65;67.32;;;6.50;99.60;;;;;;5112778;27;20457;-73
2022/01/26 04:29:38;;;;;;;133.40;66.90;;;6.50;99.70;;;;;;5110315;27;20420;-73
2022/01/26 04:32:05;;;;;;;137.53;65.77;;;6.50;99.70;;;;;;5107359;27;20810;-74
2022/01/26 04:34:33;;;;;;;135.00;66.65;;;6.50;99.70;;;;;;5110184;28;20505;-73
2022/01/26 04:39:43;;;;;;;133.23;64.95;;;6.40;99.90;;;;;;5110713;27;20398;-71
2022/01/26 04:42:17;;;;;;;130.98;65.95;;;6.50;99.90;;;;;;5112540;27;20898;-74
2022/01/26 04:44:49;;;;;;;129.27;63.40;;;6.50;99.90;;;;;;5125243;27;20436;-72
2022/01/26 04:47:15;;;;;;;128.87;63.70;;;6.60;99.90;;;;;;5115281;27;20522;-73
2022/01/26 04:49:41;;;;;;;131.32;63.25;;;6.60;99.90;;;;;;5119031;27;20472;-72
2022/01/26 04:52:06;;;;;;;133.50;61.00;;;6.60;99.90;;;;;;5113328;27;20411;-73
2022/01/26 04:54:32;;;;;;;118.43;57.88;;;6.60;99.90;;;;;;5116904;27;20408;-74
2022/01/26 04:56:59;;;;;;;124.03;59.33;;;6.60;99.90;;;;;;5119141;27;20412;-72
2022/01/26 04:59:25;;;;;;;118.28;56.42;;;6.70;99.90;;;;;;5114184;27;20412;-70
2022/01/26 05:01:50;;;;;;;109.53;52.77;;;6.70;99.90;;;;;;5110173;27;20404;-74
2022/01/26 05:04:16;;;;;;;100.60;50.20;;;6.70;99.90;;;;;;5122923;27;20402;-73
2022/01/26 05:06:42;;;;;;;98.78;48.38;;;6.70;99.90;;;;;;5113560;27;20752;-73
2022/01/26 05:09:07;;;;;;;88.20;44.93;;;6.70;99.90;;;;;;5119654;27;21120;-74
2022/01/26 05:11:39;;;;;;;94.53;45.63;;;6.70;99.90;;;;;;5127845;27;20536;-71
2022/01/26 05:14:05;;;;;;;67.60;35.77;;;6.70;99.90;;;;;;5111205;28;20494;-74
2022/01/26 05:16:31;;;;;;;67.65;35.83;;;6.70;99.90;;;;;;5107895;28;20574;-74
2022/01/26 05:18:57;;;;;;;64.93;35.25;;;6.70;99.90;;;;;;5144385;27;20929;-73
2022/01/26 05:21:25;;;;;;;64.07;34.30;;;6.80;99.90;;;;;;5120912;27;20492;-73
2022/01/26 05:23:51;;;;;;;60.22;33.38;;;6.80;99.90;;;;;;5115574;27;20448;-74
2022/01/26 05:26:18;;;;;;;60.38;32.80;;;6.80;99.90;;;;;;5113582;27;20404;-72
2022/01/26 05:28:43;;;;;;;59.35;32.60;;;6.80;99.90;;;;;;5111378;27;20493;-73
2022/01/26 05:31:09;;;;;;;61.10;33.07;;;6.80;99.90;;;;;;5122759;27;20950;-75
2022/01/26 05:33:35;;;;;;;63.33;33.33;;;6.80;99.90;;;;;;5110011;27;20408;-74
2022/01/26 05:36:00;;;;;;;62.43;33.43;;;6.80;99.90;;;;;;5112485;27;20420;-75
2022/01/26 05:38:26;;;;;;;59.53;32.42;;;6.80;99.90;;;;;;5112232;27;20528;-74
2022/01/26 05:40:51;;;;;;;60.73;32.53;;;6.80;99.90;;;;;;5114513;27;20384;-74
2022/01/26 05:43:17;;;;;;;73.22;35.17;;;6.80;99.90;;;;;;5115461;27;20816;-72
2022/01/26 05:45:48;;;;;;;60.43;30.57;;;6.80;99.90;;;;;;5119695;27;20417;-74
2022/01/26 05:48:14;;;;;;;62.53;30.58;;;6.70;99.90;;;;;;5109094;27;20400;-74
2022/01/26 05:50:49;;;;;;;57.50;30.70;;;6.80;99.90;;;;;;5104998;28;20415;-72
2022/01/26 05:53:16;;;;;;;59.30;31.77;;;6.70;99.60;;;;;;5146313;27;20405;-71
2022/01/26 05:55:42;;;;;;;60.47;31.52;;;6.70;99.60;;;;;;5115827;27;20461;-72
2022/01/26 05:58:07;;;;;;;58.72;31.77;;;6.70;99.60;;;;;;5110190;27;20408;-71
2022/01/26 06:00:33;;;;;;;63.50;32.43;;;6.70;99.60;;;;;;5116809;27;20408;-71
2022/01/26 06:02:59;;;;;;;66.47;34.97;;;6.70;99.40;;;;;;5115481;27;20413;-72
2022/01/26 06:05:24;;;;;;;69.40;36.83;;;6.70;99.40;;;;;;5115699;27;20461;-72
2022/01/26 06:07:50;;;;;;;73.60;38.80;;;6.70;99.50;;;;;;5106942;27;20416;-71
2022/01/26 06:10:16;;;;;;;76.83;39.47;;;6.60;99.50;;;;;;5108163;28;20404;-72
2022/01/26 06:12:41;;;;;;;79.72;41.65;;;6.60;99.60;;;;;;5105657;28;20502;-73
2022/01/26 06:15:07;;;;;;;84.20;42.43;;;6.60;99.60;;;;;;5106980;27;20632;-72
2022/01/26 06:17:33;;;;;;;94.22;43.38;;;6.60;99.50;;;;;;5105528;28;20416;-74
2022/01/26 06:19:59;;;;;;;87.38;42.83;;;6.60;99.60;;;;;;5103418;28;20411;-72
2022/01/26 06:22:25;;;;;;;93.18;43.40;;;6.60;99.50;;;;;;5105134;28;20396;-72
2022/01/26 06:24:52;;;;;;;77.13;40.87;;;6.60;99.30;;;;;;5089668;28;20396;-71
2022/01/26 06:27:17;;;;;;;79.18;41.35;;;6.50;99.10;;;;;;5106357;28;20400;-71
2022/01/26 06:29:43;;;;;;;81.07;42.73;;;6.50;99.10;;;;;;5139354;27;20404;-75
2022/01/26 06:32:10;;;;;;;85.95;43.78;;;6.40;99.10;;;;;;5100388;28;20409;-73
2022/01/26 06:34:39;;;;;;;86.63;41.97;;;6.50;99.10;;;;;;5090221;28;20452;-72
2022/01/26 06:37:06;;;;;;;85.10;43.75;;;6.40;99.10;;;;;;5105109;28;21221;-71
2022/01/26 06:39:32;;;;;;;87.07;41.70;;;6.50;99.10;;;;;;5138219;27;20412;-71
2022/01/26 06:41:58;;;;;;;85.95;41.80;;;6.50;99.00;;;;;;5104001;28;20411;-73
2022/01/26 06:44:34;;;;;;;90.43;43.77;;;6.40;98.80;;;;;;5106001;28;20554;-73
2022/01/26 06:49:36;;;;;;;88.32;42.78;;;6.40;99.10;;;;;;5106651;28;20419;-73
2022/01/26 06:52:02;;;;;;;100.53;44.40;;;6.40;99.00;;;;;;5102270;28;20411;-72
2022/01/26 06:54:28;;;;;;;94.55;45.58;;;6.50;99.10;;;;;;5105421;28;20452;-74
2022/01/26 06:56:53;;;;;;;100.15;47.33;;;6.50;99.10;;;;;;5118417;27;20415;-73
2022/01/26 06:59:24;;;;;;;109.23;48.07;;;6.50;99.30;;;;;;5101266;28;20431;-71
2022/01/26 07:01:49;;;;;;;110.60;48.80;;;6.50;99.50;;;;;;5105312;28;20465;-71
2022/01/26 07:04:15;;;;;;;109.22;48.85;;;6.50;99.70;;;;;;5102561;28;20797;-71
2022/01/26 07:06:40;;;;;;;115.53;48.63;;;6.50;99.90;;;;;;5107073;28;20410;-71
2022/01/26 07:09:06;;;;;;;101.35;43.60;;;6.50;99.90;;;;;;5105888;28;21208;-71
2022/01/26 07:11:32;;;;;;;94.43;43.80;;;6.50;99.90;;;;;;5105096;28;20447;-71
2022/01/26 07:14:00;;;;;;;93.35;42.42;;;6.50;99.90;;;;;;5106896;28;20419;-72
2022/01/26 07:21:54;;;;;;;75.07;36.53;;;6.50;99.50;;;;;;5107081;28;20396;-72
2022/01/26 07:24:20;;;;;;;79.03;37.83;;;6.50;99.30;;;;;;5111100;28;20407;-71
2022/01/26 07:26:46;;;;;;;90.13;37.92;;;6.50;99.10;;;;;;5111791;28;20997;-71
2022/01/26 07:29:12;;;;;;;75.85;35.65;;;6.50;99.10;;;;;;5114386;27;20403;-71
2022/01/26 07:31:42;;;;;;;81.10;36.65;;;6.50;99.20;;;;;;5109677;27;20411;-72
2022/01/26 07:34:10;;;;;;;72.68;36.22;;;6.50;99.20;;;;;;5110144;27;20435;-72
2022/01/26 07:36:36;;;;;;;70.00;36.50;;;6.50;99.30;;;;;;5110138;28;20619;-72
2022/01/26 07:39:07;;;;;;;83.63;37.90;;;6.50;99.40;;;;;;5110070;28;20509;-71
2022/01/26 07:41:34;;;;;;;71.27;36.57;;;6.50;99.50;;;;;;5115250;27;20414;-72
2022/01/26 07:44:00;;;;;;;76.32;37.30;;;6.50;99.60;;;;;;5114762;27;20399;-71
2022/01/26 07:46:27;;;;;;;70.00;36.53;;;6.40;99.60;;;;;;5130722;27;20408;-71
2022/01/26 07:48:53;;;;;;;74.57;38.50;;;6.50;99.70;;;;;;5110323;28;20400;-71
2022/01/26 07:51:19;;;;;;;77.40;38.40;;;6.50;99.80;;;;;;5109675;27;20414;-70
2022/01/26 07:53:45;;;;;;;72.07;36.50;;;6.50;99.90;;;;;;5113643;27;20404;-72
2022/01/26 07:56:11;;;;;;;70.07;37.83;;;6.50;99.80;;;;;;5102585;27;20406;-69
2022/01/26 07:58:37;;;;;;;76.03;37.25;;;6.50;99.80;;;;;;5111136;27;20483;-73
2022/01/26 08:01:03;;;;;;;74.15;36.40;;;6.50;99.90;;;;;;5115701;27;20962;-70
2022/01/26 08:03:33;;;;;;;67.97;36.10;;;6.50;99.80;;;;;;5121022;27;20443;-73
2022/01/26 08:06:04;;;;;;;74.88;37.40;;;6.50;99.90;;;;;;5122963;27;20411;-74
2022/01/26 08:08:31;;;;;;;66.37;36.97;;;6.50;99.80;;;;;;5110058;27;20468;-72
2022/01/26 08:10:58;;;;;;;70.00;37.05;;;6.50;99.80;;;;;;5108392;27;20962;-72
2022/01/26 08:13:24;;;;;;;69.65;35.25;;;6.60;99.80;;;;;;5108914;28;20434;-73
2022/01/26 08:15:49;;;;;;;67.47;33.77;;;6.60;99.80;;;;;;5110585;28;20889;-72
2022/01/26 08:18:15;;;;;;;69.35;34.35;;;6.60;99.70;;;;;;5108014;28;20961;-73
2022/01/26 08:20:41;;;;;;;66.30;34.03;;;6.50;99.80;;;;;;5113588;27;20401;-71
2022/01/26 08:23:08;;;;;;;68.03;35.50;;;6.60;99.90;;;;;;5107562;27;20419;-72
2022/01/26 08:25:34;;;;;;;64.35;35.30;;;6.60;99.90;;;;;;5110136;27;20831;-72
2022/01/26 08:28:17;;;;;;;73.18;36.15;;;6.60;99.90;;;;;;5107656;27;20416;-73
2022/01/26 08:30:43;;;;;;;71.30;35.67;;;6.50;99.90;;;;;;5102892;27;20407;-70
2022/01/26 08:33:09;;;;;;;70.93;35.83;;;6.60;99.90;;;;;;5110862;27;20401;-73
2022/01/26 08:35:36;;;;;;;71.97;36.77;;;6.60;99.90;;;;;;5111603;27;20416;-72
2022/01/26 08:38:02;;;;;;;70.25;36.88;;;6.60;99.90;;;;;;5107940;27;20447;-72
2022/01/26 08:40:28;;;;;;;70.10;33.95;;;6.60;99.90;;;;;;5106975;28;20922;-72
2022/01/26 08:42:54;;;;;;;63.85;33.95;;;6.60;99.90;;;;;;5109391;27;20402;-72
2022/01/26 08:45:20;;;;;;;72.72;34.47;;;6.60;99.90;;;;;;5108590;28;20404;-72
2022/01/26 08:47:47;;;;;;;69.60;33.70;;;6.60;99.90;;;;;;5111159;27;20452;-70
2022/01/26 08:50:13;;;;;;;65.87;32.77;;;6.70;99.90;;;;;;5113361;27;20413;-71
2022/01/26 08:52:39;;;;;;;67.53;32.10;;;6.70;99.90;;;;;;5114888;27;20467;-72
2022/01/26 08:55:06;;;;;;;67.78;32.55;;;6.70;99.90;;;;;;5159035;27;20433;-73
2022/01/26 08:57:31;;;;;;;72.63;32.77;;;6.70;99.90;;;;;;5112595;27;20416;-74
2022/01/26 08:59:58;;;;;;;67.32;32.25;;;6.60;99.90;;;;;;5114608;27;20400;-71
2022/01/26 09:02:25;;;;;;;72.20;33.22;;;6.60;99.90;;;;;;5109276;28;20951;-73
2022/01/26 09:04:50;;;;;;;67.10;32.13;;;6.60;99.90;;;;;;5108485;28;20487;-72
2022/01/26 09:07:19;;;;;;;66.88;31.40;;;6.60;99.90;;;;;;5110501;27;20483;-75
2022/01/26 09:09:45;;;;;;;64.75;31.83;;;6.70;99.90;;;;;;5116695;27;20411;-74
2022/01/26 09:12:14;;;;;;;66.18;33.33;;;6.70;99.90;;;;;;5111403;27;20411;-72
2022/01/26 09:14:40;;;;;;;66.50;31.50;;;6.70;99.90;;;;;;5116652;27;20588;-73
2022/01/26 09:17:07;;;;;;;69.75;32.63;;;6.70;99.90;;;;;;5113551;27;20404;-73
2022/01/26 09:19:35;;;;;;;72.57;35.00;;;6.70;99.90;;;;;;5108708;28;20408;-73
2022/01/26 09:22:09;;;;;;;68.57;32.90;;;6.80;99.90;;;;;;5113234;27;20394;-75
2022/01/26 09:24:38;;;;;;;71.47;34.65;;;6.80;99.90;;;;;;5117536;27;20952;-74
2022/01/26 09:27:06;;;;;;;71.18;35.10;;;6.80;99.90;;;;;;5111179;27;20985;-72
2022/01/26 09:29:32;;;;;;;70.75;35.47;;;6.90;99.90;;;;;;5114442;27;20415;-72
2022/01/26 09:31:58;;;;;;;67.00;34.45;;;7.00;99.90;;;;;;5109938;27;20414;-72
2022/01/26 09:34:27;;;;;;;63.17;33.70;;;7.00;99.90;;;;;;5108866;28;20451;-73
2022/01/26 09:36:52;;;;;;;62.92;32.88;;;7.00;99.90;;;;;;5109707;27;20427;-75
2022/01/26 09:39:19;;;;;;;65.10;33.60;;;7.00;99.90;;;;;;5118217;27;20885;-73
2022/01/26 09:41:48;;;;;;;67.13;34.15;;;7.00;99.90;;;;;;5113480;27;20432;-74
2022/01/26 09:44:15;;;;;;;70.22;35.50;;;7.00;99.90;;;;;;5118072;27;20398;-75
2022/01/26 09:46:42;;;;;;;60.13;33.30;;;7.10;99.90;;;;;;5110162;27;20412;-74
2022/01/26 09:49:08;;;;;;;68.05;34.45;;;7.10;99.90;;;;;;5109834;27;20473;-73
2022/01/26 09:51:40;;;;;;;66.45;33.92;;;7.10;99.90;;;;;;5109970;27;20406;-72
2022/01/26 09:54:11;;;;;;;66.97;33.80;;;7.10;99.90;;;;;;5109709;27;20472;-73
2022/01/26 09:56:37;;;;;;;64.15;33.75;;;7.20;99.90;;;;;;5109245;27;20415;-72
2022/01/26 09:59:03;;;;;;;66.55;33.53;;;7.30;99.90;;;;;;5118362;27;20392;-73
2022/01/26 10:01:39;;;;;;;60.80;33.13;;;7.30;99.90;;;;;;5113609;27;20404;-73
2022/01/26 10:04:05;;;;;;;56.07;30.87;;;7.30;99.90;;;;;;5109397;27;20729;-73
2022/01/26 10:06:32;;;;;;;58.00;30.15;;;7.30;99.90;;;;;;5128944;27;20481;-72
2022/01/26 10:17:27;;;;;;;49.90;29.13;;;7.50;99.80;;;;;;5108576;28;20431;-76
2022/01/26 10:20:03;;;;;;;45.20;27.35;;;7.50;99.70;;;;;;5106056;28;20459;-72
2022/01/26 10:22:34;;;;;;;46.97;28.05;;;7.60;99.40;;;;;;5107672;27;20465;-72
2022/01/26 10:25:18;;;;;;;53.50;29.63;;;7.60;99.20;;;;;;5106431;28;20419;-74
2022/01/26 10:27:48;;;;;;;48.72;26.30;;;7.60;99.20;;;;;;5107734;28;20499;-73
2022/01/26 10:30:17;;;;;;;51.28;27.92;;;7.70;99.10;;;;;;5116347;27;20413;-74
2022/01/26 10:32:45;;;;;;;47.00;27.45;;;7.70;98.90;;;;;;5110058;27;20416;-75
2022/01/26 10:35:14;;;;;;;50.08;27.98;;;7.70;98.90;;;;;;5112430;27;20926;-74
2022/01/26 10:37:48;;;;;;;56.65;27.95;;;7.70;98.90;;;;;;5119142;27;20992;-74
2022/01/26 10:40:19;;;;;;;53.28;28.98;;;7.80;98.90;;;;;;5108123;28;20411;-73
2022/01/26 10:42:56;;;;;;;54.65;28.67;;;7.80;99.00;;;;;;5108031;28;20481;-72
2022/01/26 10:48:42;;;;;;;53.08;28.95;;;7.90;99.10;;;;;;5108831;28;20814;-73
2022/01/26 10:53:58;;;;;;;53.33;28.77;;;7.90;99.40;;;;;;5121532;28;20932;-73
2022/01/26 10:56:23;;;;;;;49.20;26.40;;;7.90;99.40;;;;;;5114780;28;20409;-75
2022/01/26 10:58:49;;;;;;;46.97;26.80;;;8.00;99.20;;;;;;5114167;28;20474;-75
2022/01/26 11:01:15;;;;;;;47.20;26.75;;;8.00;99.10;;;;;;5107187;28;20916;-73
2022/01/26 11:03:40;;;;;;;49.87;26.87;;;8.00;98.90;;;;;;5120841;27;20418;-74
2022/01/26 11:06:08;;;;;;;46.55;26.40;;;8.00;98.90;;;;;;5121194;27;20453;-72
2022/01/26 11:08:43;;;;;;;45.60;25.60;;;8.00;99.00;;;;;;5111411;28;20407;-73
2022/01/26 11:11:19;;;;;;;45.25;25.77;;;8.10;98.90;;;;;;5113216;27;20411;-74
2022/01/26 11:13:45;;;;;;;50.47;25.98;;;8.20;99.10;;;;;;5112569;28;20895;-74
2022/01/26 11:16:12;;;;;;;46.10;25.47;;;8.20;98.90;;;;;;5114407;27;20410;-74
2022/01/26 11:18:49;;;;;;;53.05;25.55;;;8.20;98.90;;;;;;5132992;27;20405;-73
2022/01/26 11:21:36;;;;;;;51.87;25.93;;;8.30;98.90;;;;;;5106992;27;20769;-73
2022/01/26 11:24:23;;;;;;;45.45;25.65;;;8.30;99.00;;;;;;5114722;27;20966;-73
2022/01/26 11:27:09;;;;;;;52.05;25.77;;;8.30;99.00;;;;;;5106318;27;20484;-74
2022/01/26 11:29:38;;;;;;;61.97;27.40;;;8.30;99.00;;;;;;5109381;27;21026;-71
2022/01/26 11:32:24;;;;;;;55.85;27.20;;;8.40;99.10;;;;;;5110189;28;20423;-72
2022/01/26 11:34:52;;;;;;;53.08;25.63;;;8.40;99.10;;;;;;5115564;27;20414;-73
2022/01/26 11:37:38;;;;;;;56.42;27.50;;;8.50;99.10;;;;;;5120539;27;20434;-74
2022/01/26 11:45:34;;;;;;;53.15;26.35;;;8.50;99.30;;;;;;5109160;27;20460;-72
2022/01/26 11:48:11;;;;;;;49.72;26.48;;;8.60;99.30;;;;;;5106795;27;20404;-72
2022/01/26 11:50:42;;;;;;;49.22;26.00;;;8.60;99.40;;;;;;5111326;28;20427;-72
2022/01/26 11:53:11;;;;;;;52.67;27.17;;;8.60;99.50;;;;;;5109704;28;20746;-71
2022/01/26 11:55:50;;;;;;;52.20;26.02;;;8.60;99.60;;;;;;5110168;28;20419;-71
2022/01/26 11:58:37;;;;;;;45.95;25.15;;;8.60;99.60;;;;;;5109772;27;20772;-72
2022/01/26 12:01:22;;;;;;;55.27;27.00;;;8.60;99.60;;;;;;5108765;27;20420;-71
2022/01/26 12:04:00;;;;;;;46.95;26.00;;;8.60;99.90;;;;;;5116352;27;20499;-73
2022/01/26 12:06:41;;;;;;;49.28;26.83;;;8.60;99.80;;;;;;5109454;27;20412;-70
2022/01/26 12:09:08;;;;;;;49.33;26.30;;;8.60;99.90;;;;;;5110563;27;20412;-73
2022/01/26 12:11:35;;;;;;;46.65;25.15;;;8.60;99.90;;;;;;5108602;27;20420;-72
2022/01/26 12:14:04;;;;;;;48.17;26.40;;;8.60;99.90;;;;;;5110476;27;20498;-70
2022/01/26 12:16:41;;;;;;;44.72;24.27;;;8.50;99.90;;;;;;5113624;27;20476;-72
2022/01/26 12:43:15;;;;;;;48.78;23.75;;;8.70;99.90;;;;;;5109128;27;20415;-71
2022/01/26 12:45:41;;;;;;;55.78;24.50;;;8.60;99.90;;;;;;5108886;27;20490;-71
2022/01/26 12:48:09;;;;;;;47.40;23.38;;;8.70;99.90;;;;;;5108927;28;20522;-73
2022/01/26 12:50:37;;;;;;;50.65;24.08;;;8.70;99.90;;;;;;5111873;27;20835;-73
2022/01/26 12:53:03;;;;;;;48.35;24.52;;;8.80;99.90;;;;;;5109117;27;20404;-71
2022/01/26 12:55:32;;;;;;;62.47;25.73;;;8.70;99.90;;;;;;5110246;28;20419;-72
2022/01/26 12:57:58;;;;;;;47.17;23.70;;;8.80;99.90;;;;;;5107737;28;20416;-72
2022/01/26 13:00:25;;;;;;;37.22;20.40;;;8.80;99.90;;;;;;5109406;28;20740;-70
2022/01/26 13:02:54;;;;;;;45.83;20.45;;;8.80;99.90;;;;;;5108291;27;20412;-71
2022/01/26 13:05:25;;;;;;;50.35;21.48;;;8.80;99.90;;;;;;5109680;27;20564;-73
2022/01/26 13:08:05;;;;;;;43.08;20.35;;;8.80;99.90;;;;;;5108522;28;20429;-72
2022/01/26 13:10:31;;;;;;;43.77;20.40;;;8.90;99.90;;;;;;5110732;28;20392;-72
2022/01/26 13:13:09;;;;;;;45.47;20.75;;;8.90;99.90;;;;;;5107871;28;20884;-70
2022/01/26 13:15:48;;;;;;;43.72;20.42;;;8.90;99.90;;;;;;5110095;28;20427;-73
2022/01/26 13:18:18;;;;;;;39.28;19.25;;;8.90;99.90;;;;;;5088482;28;20983;-71
2022/01/26 13:21:37;;;;;;;39.57;20.20;;;8.90;99.90;;;;;;5103323;27;20491;-70
2022/01/26 13:23:45;;;;;;;42.42;20.90;;;9.00;99.90;;;;;;5096813;28;20416;-69
2022/01/26 13:26:38;;;;;;;42.53;21.45;;;9.00;99.90;;;;;;5090296;28;20419;-71
2022/01/26 13:34:48;;;;;;;41.05;20.60;;;8.90;99.90;;;;;;5109745;28;20479;-71
2022/01/26 13:37:45;;;;;;;40.60;20.45;;;9.00;99.90;;;;;;5108049;27;20424;-74
2022/01/26 13:46:41;;;;;;;36.88;18.35;;;9.00;99.90;;;;;;5113720;27;20408;-72
2022/01/26 13:51:41;;;;;;;36.40;17.42;;;9.00;99.90;;;;;;5110639;27;20422;-72
2022/01/26 14:01:46;;;;;;;36.53;17.17;;;9.10;99.90;;;;;;5108542;27;20911;-71
2022/01/26 14:04:14;;;;;;;30.48;15.48;;;9.10;99.90;;;;;;5146160;27;20433;-73
2022/01/26 14:06:40;;;;;;;28.87;15.07;;;9.00;99.90;;;;;;5109071;27;20944;-70
2022/01/26 14:09:06;;;;;;;28.27;14.35;;;9.00;99.90;;;;;;5110338;28;20503;-71
2022/01/26 14:11:32;;;;;;;30.83;15.48;;;9.00;99.90;;;;;;5110351;27;20780;-73
2022/01/26 14:13:59;;;;;;;27.65;14.98;;;9.00;99.90;;;;;;5109939;27;20414;-69
2022/01/26 14:16:27;;;;;;;30.00;14.20;;;9.00;99.90;;;;;;5107684;27;20417;-73
2022/01/26 14:24:52;;;;;;;31.08;14.35;;;9.10;99.90;;;;;;5112764;27;20763;-69
2022/01/26 14:27:19;;;;;;;26.35;13.43;;;9.10;99.90;;;;;;5105297;28;20419;-71
2022/01/26 14:30:14;;;;;;;26.77;13.13;;;9.10;99.90;;;;;;5108588;28;20408;-73
2022/01/26 14:35:19;;;;;;;27.43;12.30;;;9.10;99.90;;;;;;5107926;28;20412;-72
2022/01/26 14:54:18;;;;;;;;;;;;;;;;;;;;;
2022/01/26 15:10:06;;;;;;;41.17;19.92;;;9.10;99.90;;;;;;5108428;28;20412;-69
2022/01/26 15:42:21;;;;;;;51.63;23.13;;;9.00;99.90;;;;;;5122872;28;21075;-72
2022/01/26 15:50:24;;;;;;;51.13;21.60;;;8.90;99.90;;;;;;5109099;28;20406;-73
2022/01/26 15:58:18;;;;;;;42.40;19.83;;;8.90;99.90;;;;;;5111676;28;20504;-72
2022/01/26 16:06:22;;;;;;;44.23;20.07;;;8.90;99.90;;;;;;5117883;27;20390;-71
2022/01/26 16:19:57;;;;;;;41.92;19.27;;;8.80;99.90;;;;;;5114762;27;20397;-72
2022/01/26 16:36:52;;;;;;;38.05;17.67;;;8.70;99.90;;;;;;5110914;27;20434;-72
2022/01/26 16:39:05;;;;;;;42.43;17.57;;;8.70;99.90;;;;;;5113350;27;21057;-70
2022/01/26 16:53:26;;;;;;;39.58;17.00;;;8.50;99.90;;;;;;5110608;27;20888;-76
2022/01/26 17:48:01;;;;;;;42.13;19.42;;;8.40;99.90;;;;;;5107515;28;20486;-72
2022/01/26 18:49:39;;;;;;;27.08;10.05;;;8.60;99.90;;;;;;5107831;28;20417;-71
2022/01/26 18:52:06;;;;;;;25.77;9.95;;;8.70;99.90;;;;;;5107601;28;20403;-70
2022/01/26 18:54:37;;;;;;;27.58;10.48;;;8.70;99.90;;;;;;5112082;27;20872;-71
2022/01/26 18:57:06;;;;;;;27.63;10.45;;;8.70;99.90;;;;;;5108078;27;20431;-70
2022/01/26 18:59:32;;;;;;;28.50;10.93;;;8.70;99.90;;;;;;5102288;28;20414;-71
2022/01/26 19:01:59;;;;;;;28.00;10.60;;;8.60;99.90;;;;;;5120267;28;20418;-71
2022/01/26 19:04:34;;;;;;;35.75;11.23;;;8.70;99.90;;;;;;5116373;28;20406;-71
2022/01/26 19:07:00;;;;;;;27.83;11.15;;;8.70;99.90;;;;;;5106714;27;20552;-74
2022/01/26 19:09:29;;;;;;;27.08;11.30;;;8.70;99.90;;;;;;5110966;28;20493;-75
2022/01/26 19:11:57;;;;;;;32.08;11.95;;;8.70;99.90;;;;;;5113290;27;20906;-70
2022/01/26 19:14:27;;;;;;;33.25;12.27;;;8.70;99.90;;;;;;5104722;27;20420;-73